createdAt,value
2022-10-09T00:01:03.378Z,51.13
2022-10-09T00:03:31.047Z,50.73
2022-10-09T00:05:58.978Z,37.97
2022-10-09T00:08:27.157Z,43.03
2022-10-09T00:10:55.988Z,56.40
2022-10-09T00:13:23.893Z,58.47
2022-10-09T00:15:52.802Z,45.13
2022-10-09T00:18:20.323Z,51.03
2022-10-09T00:20:48.324Z,55.60
2022-10-09T00:23:17.448Z,52.57
2022-10-09T00:25:52.693Z,48.63
2022-10-09T00:28:20.595Z,40.00
2022-10-09T00:30:48.232Z,42.40
2022-10-09T00:33:17.618Z,37.07
2022-10-09T00:35:45.193Z,31.33
2022-10-09T00:38:13.250Z,24.10
2022-10-09T00:40:41.200Z,42.23
2022-10-09T00:43:15.601Z,44.20
2022-10-09T00:45:48.798Z,40.43
2022-10-09T00:48:19.433Z,50.77
2022-10-09T00:50:52.723Z,57.17
2022-10-09T00:53:23.113Z,42.33
2022-10-09T00:55:52.336Z,46.53
2022-10-09T00:58:20.645Z,62.33
2022-10-09T01:00:48.536Z,55.47
2022-10-09T01:03:17.477Z,55.17
2022-10-09T01:05:54.300Z,39.90
2022-10-09T01:08:29.128Z,56.47
2022-10-09T01:11:02.545Z,40.93
2022-10-09T01:13:37.582Z,51.00
2022-10-09T01:16:11.813Z,52.47
2022-10-09T01:18:48.264Z,42.27
2022-10-09T01:21:20.821Z,50.50
2022-10-09T01:23:58.427Z,47.23
2022-10-09T01:26:36.769Z,40.67
2022-10-09T01:29:09.120Z,53.50
2022-10-09T01:31:41.751Z,56.23
2022-10-09T01:34:11.509Z,39.27
2022-10-09T01:36:40.692Z,34.23
2022-10-09T01:39:10.969Z,32.37
2022-10-09T01:41:39.043Z,56.47
2022-10-09T01:44:18.079Z,56.33
2022-10-09T01:46:46.147Z,56.63
2022-10-09T01:49:26.130Z,61.13
2022-10-09T01:52:00.039Z,49.93
2022-10-09T01:54:35.797Z,50.63
2022-10-09T01:57:07.823Z,68.13
2022-10-09T01:59:40.560Z,79.93
2022-10-09T02:02:08.838Z,69.47
2022-10-09T02:04:39.787Z,58.37
2022-10-09T02:07:07.494Z,60.63
2022-10-09T02:09:36.373Z,62.17
2022-10-09T02:12:08.740Z,61.03
2022-10-09T02:14:39.368Z,62.47
2022-10-09T02:17:10.235Z,77.97
2022-10-09T02:19:42.707Z,84.07
2022-10-09T02:22:15.916Z,73.70
2022-10-09T02:24:44.545Z,82.20
2022-10-09T02:27:13.072Z,73.57
2022-10-09T02:29:43.305Z,57.43
2022-10-09T02:32:11.747Z,61.07
2022-10-09T02:34:39.326Z,70.77
2022-10-09T02:37:08.038Z,80.20
2022-10-09T02:39:35.652Z,39.07
2022-10-09T02:42:03.313Z,45.03
2022-10-09T02:44:30.851Z,41.50
2022-10-09T02:46:59.720Z,61.23
2022-10-09T02:49:27.284Z,43.00
2022-10-09T02:51:54.971Z,27.03
2022-10-09T02:54:22.496Z,31.57
2022-10-09T02:56:50.012Z,28.33
2022-10-09T02:59:17.645Z,21.30
2022-10-09T03:01:45.267Z,22.73
2022-10-09T03:04:14.432Z,27.27
2022-10-09T03:06:41.972Z,24.23
2022-10-09T03:09:09.484Z,26.97
2022-10-09T03:11:36.995Z,26.27
2022-10-09T03:14:04.559Z,25.97
2022-10-09T03:16:32.168Z,27.03
2022-10-09T03:19:00.084Z,28.83
2022-10-09T03:21:29.819Z,33.90
2022-10-09T03:23:57.454Z,33.20
2022-10-09T03:26:26.847Z,39.67
2022-10-09T03:28:56.169Z,30.80
2022-10-09T03:31:51.143Z,27.03
2022-10-09T03:34:14.208Z,27.53
2022-10-09T03:36:43.440Z,26.73
2022-10-09T03:39:11.202Z,25.53
2022-10-09T03:41:38.724Z,27.60
2022-10-09T03:44:06.422Z,24.73
2022-10-09T03:46:34.055Z,26.93
2022-10-09T03:49:01.625Z,33.70
2022-10-09T03:51:29.136Z,36.27
2022-10-09T03:53:58.336Z,62.30
2022-10-09T03:56:25.865Z,56.80
2022-10-09T03:58:53.382Z,92.83
2022-10-09T04:01:21.118Z,144.17
2022-10-09T04:03:48.944Z,312.37
2022-10-09T04:06:16.707Z,279.77
2022-10-09T04:08:44.260Z,301.37
2022-10-09T04:11:13.149Z,363.33
2022-10-09T04:13:40.733Z,197.43
2022-10-09T04:16:12.539Z,103.63
2022-10-09T04:18:40.513Z,47.37
2022-10-09T04:21:08.332Z,34.33
2022-10-09T04:23:35.906Z,36.70
2022-10-09T04:26:03.431Z,29.20
2022-10-09T04:28:33.622Z,33.83
2022-10-09T04:31:01.413Z,31.37
2022-10-09T04:33:29.081Z,35.50
2022-10-09T04:35:57.211Z,48.33
2022-10-09T04:38:25.701Z,42.77
2022-10-09T04:40:56.887Z,36.90
2022-10-09T04:43:24.587Z,67.27
2022-10-09T04:45:53.533Z,43.23
2022-10-09T04:48:21.149Z,74.20
2022-10-09T04:50:49.031Z,57.03
2022-10-09T04:53:16.677Z,58.93
2022-10-09T04:55:45.337Z,54.60
2022-10-09T04:58:13.824Z,60.03
2022-10-09T05:00:42.657Z,131.53
2022-10-09T05:03:12.003Z,134.33
2022-10-09T05:05:39.997Z,165.13
2022-10-09T05:08:07.603Z,121.17
2022-10-09T05:10:35.221Z,125.73
2022-10-09T05:13:02.768Z,149.20
2022-10-09T05:15:30.288Z,135.93
2022-10-09T05:17:58.156Z,123.90
2022-10-09T05:20:27.044Z,97.90
2022-10-09T05:22:54.749Z,83.57
2022-10-09T05:25:22.277Z,84.10
2022-10-09T05:27:49.799Z,94.10
2022-10-09T05:30:17.386Z,120.23
2022-10-09T05:32:44.887Z,117.53
2022-10-09T05:35:12.475Z,88.57
2022-10-09T05:37:41.343Z,112.90
2022-10-09T05:40:09.995Z,94.23
2022-10-09T05:42:37.665Z,53.33
2022-10-09T05:45:05.399Z,72.40
2022-10-09T05:47:32.950Z,63.03
2022-10-09T05:50:00.489Z,85.63
2022-10-09T05:52:28.009Z,98.53
2022-10-09T05:54:57.177Z,47.63
2022-10-09T05:57:24.715Z,51.50
2022-10-09T05:59:52.265Z,100.07
2022-10-09T06:02:19.794Z,66.23
2022-10-09T06:04:47.339Z,87.83
2022-10-09T06:07:14.868Z,94.30
2022-10-09T06:09:42.492Z,45.53
2022-10-09T06:12:11.365Z,40.23
2022-10-09T06:14:38.877Z,108.33
2022-10-09T06:17:06.532Z,100.43
2022-10-09T06:19:34.080Z,111.70
2022-10-09T06:22:01.586Z,96.70
2022-10-09T06:24:29.700Z,84.30
2022-10-09T06:26:57.805Z,87.83
2022-10-09T06:29:26.777Z,39.77
2022-10-09T06:31:54.557Z,36.73
2022-10-09T06:34:22.209Z,47.27
2022-10-09T06:36:49.887Z,58.83
2022-10-09T06:39:17.512Z,52.27
2022-10-09T06:41:45.139Z,41.80
2022-10-09T06:44:17.161Z,40.73
2022-10-09T06:46:49.302Z,46.03
2022-10-09T06:49:16.825Z,30.27
2022-10-09T06:51:44.335Z,28.90
2022-10-09T06:54:13.965Z,42.83
2022-10-09T06:56:41.611Z,43.90
2022-10-09T06:59:09.737Z,30.20
2022-10-09T07:01:37.296Z,31.50
2022-10-09T07:04:08.222Z,61.37
2022-10-09T07:06:39.840Z,38.77
2022-10-09T07:09:09.295Z,50.87
2022-10-09T07:11:39.133Z,38.90
2022-10-09T07:14:08.254Z,42.73
2022-10-09T07:16:37.576Z,47.67
2022-10-09T07:19:08.410Z,34.60
2022-10-09T07:21:36.300Z,57.10
2022-10-09T07:24:05.489Z,70.67
2022-10-09T07:26:35.009Z,103.50
2022-10-09T07:29:03.295Z,97.27
2022-10-09T07:31:30.806Z,72.97
2022-10-09T07:33:58.389Z,80.53
2022-10-09T07:36:27.841Z,76.57
2022-10-09T07:38:57.400Z,64.37
2022-10-09T07:41:26.819Z,95.47
2022-10-09T07:43:54.695Z,92.77
2022-10-09T07:46:23.865Z,81.63
2022-10-09T07:48:51.598Z,87.63
2022-10-09T07:51:21.174Z,48.40
2022-10-09T07:53:50.471Z,40.77
2022-10-09T07:56:19.736Z,43.97
2022-10-09T07:58:50.059Z,70.93
2022-10-09T08:01:20.279Z,85.20
2022-10-09T08:03:48.703Z,44.47
2022-10-09T08:06:16.328Z,86.93
2022-10-09T08:08:44.498Z,44.03
2022-10-09T08:11:16.296Z,51.73
2022-10-09T08:13:45.164Z,50.87
2022-10-09T08:16:12.966Z,45.50
2022-10-09T08:18:40.483Z,35.77
2022-10-09T08:21:10.085Z,51.63
2022-10-09T08:23:37.775Z,53.13
2022-10-09T08:26:06.395Z,47.90
2022-10-09T08:28:35.432Z,62.05
2022-10-09T08:31:11.085Z,39.88
2022-10-09T08:33:38.589Z,43.08
2022-10-09T08:36:07.862Z,41.47
2022-10-09T08:38:47.117Z,46.35
2022-10-09T08:41:25.854Z,43.08
2022-10-09T08:44:02.185Z,43.90
2022-10-09T08:46:34.392Z,42.75
2022-10-09T08:49:05.309Z,36.95
2022-10-09T08:51:39.501Z,40.58
2022-10-09T08:54:20.264Z,22.35
2022-10-09T08:56:48.644Z,7.03
2022-10-09T08:59:17.524Z,6.32
2022-10-09T09:01:51.165Z,7.35
2022-10-09T09:04:39.696Z,7.40
2022-10-09T09:07:17.395Z,7.10
2022-10-09T09:09:54.072Z,8.10
2022-10-09T09:12:28.396Z,9.15
2022-10-09T09:15:18.711Z,8.00
2022-10-09T09:17:55.157Z,8.25
2022-10-09T09:20:26.546Z,6.25
2022-10-09T09:22:54.338Z,6.90
2022-10-09T09:25:24.933Z,8.35
2022-10-09T09:27:53.880Z,7.70
2022-10-09T09:30:28.799Z,9.20
2022-10-09T09:33:05.539Z,8.25
2022-10-09T09:35:38.744Z,5.90
2022-10-09T09:38:06.277Z,6.13
2022-10-09T09:40:37.301Z,6.40
2022-10-09T09:43:12.998Z,7.18
2022-10-09T09:45:43.735Z,6.57
2022-10-09T09:48:15.972Z,5.22
2022-10-09T09:50:53.079Z,6.22
2022-10-09T09:53:36.797Z,5.18
2022-10-09T09:56:05.442Z,6.82
2022-10-09T09:58:36.364Z,6.55
2022-10-09T10:01:07.591Z,4.60
2022-10-09T10:03:36.743Z,5.25
2022-10-09T10:06:04.817Z,5.90
2022-10-09T10:08:34.484Z,6.55
2022-10-09T10:11:06.095Z,6.25
2022-10-09T10:13:37.952Z,6.13
2022-10-09T10:16:09.269Z,6.75
2022-10-09T10:18:40.281Z,6.47
2022-10-09T10:21:12.272Z,6.07
2022-10-09T10:23:43.563Z,5.78
2022-10-09T10:26:27.995Z,6.93
2022-10-09T10:29:02.370Z,6.82
2022-10-09T10:31:39.668Z,7.10
2022-10-09T10:34:15.181Z,6.43
2022-10-09T10:36:42.853Z,5.60
2022-10-09T10:39:19.852Z,7.00
2022-10-09T10:41:52.275Z,5.93
2022-10-09T10:44:24.372Z,5.20
2022-10-09T10:46:59.974Z,4.90
2022-10-09T10:49:32.894Z,5.50
2022-10-09T10:52:15.501Z,4.78
2022-10-09T10:54:51.149Z,5.70
2022-10-09T10:57:25.064Z,4.13
2022-10-09T11:00:03.826Z,3.03
2022-10-09T11:03:03.493Z,4.35
2022-10-09T11:05:40.204Z,3.72
2022-10-09T11:08:22.280Z,3.53
2022-10-09T11:11:00.519Z,2.42
2022-10-09T11:13:33.178Z,2.63
2022-10-09T11:16:17.241Z,3.15
2022-10-09T11:19:04.642Z,2.88
2022-10-09T11:21:51.986Z,2.65
2022-10-09T11:24:33.503Z,2.28
2022-10-09T11:27:11.682Z,2.50
2022-10-09T11:29:44.948Z,2.50
2022-10-09T11:32:16.480Z,2.45
2022-10-09T11:34:49.542Z,2.30
2022-10-09T11:37:21.989Z,2.40
2022-10-09T11:39:49.478Z,2.88
2022-10-09T11:42:22.365Z,2.10
2022-10-09T11:45:02.008Z,2.58
2022-10-09T11:47:36.024Z,3.05
2022-10-09T11:50:32.766Z,2.42
2022-10-09T11:53:05.851Z,2.72
2022-10-09T11:55:34.861Z,3.00
2022-10-09T11:58:14.816Z,2.47
2022-10-09T12:00:43.508Z,2.40
2022-10-09T12:03:25.465Z,3.17
2022-10-09T12:06:04.484Z,2.53
2022-10-09T12:08:32.160Z,2.55
2022-10-09T12:11:08.142Z,3.20
2022-10-09T12:13:48.945Z,2.65
2022-10-09T12:16:47.114Z,2.70
2022-10-09T12:19:19.610Z,2.53
2022-10-09T12:21:52.666Z,2.50
2022-10-09T12:24:23.996Z,2.33
2022-10-09T12:26:54.097Z,2.55
2022-10-09T12:29:28.275Z,3.33
2022-10-09T12:31:59.950Z,2.45
2022-10-09T12:34:30.945Z,2.17
2022-10-09T12:37:11.248Z,2.70
2022-10-09T12:39:39.071Z,2.40
2022-10-09T12:42:09.065Z,2.55
2022-10-09T12:44:40.363Z,2.40
2022-10-09T12:47:14.060Z,2.83
2022-10-09T12:49:41.732Z,2.47
2022-10-09T12:52:16.821Z,2.13
2022-10-09T12:54:45.616Z,2.13
2022-10-09T12:57:16.437Z,2.83
2022-10-09T12:59:45.316Z,2.47
2022-10-09T13:02:16.179Z,2.40
2022-10-09T13:04:56.355Z,2.33
2022-10-09T13:07:27.927Z,2.20
2022-10-09T13:10:06.159Z,2.10
2022-10-09T13:12:35.536Z,2.47
2022-10-09T13:15:05.487Z,2.00
2022-10-09T13:17:35.263Z,1.80
2022-10-09T13:20:05.565Z,2.08
2022-10-09T13:22:35.980Z,2.28
2022-10-09T13:25:04.524Z,2.47
2022-10-09T13:27:34.928Z,2.00
2022-10-09T13:30:02.534Z,1.90
2022-10-09T13:32:30.912Z,1.90
2022-10-09T13:34:58.428Z,2.30
2022-10-09T13:37:27.276Z,2.10
2022-10-09T13:39:58.127Z,2.22
2022-10-09T13:42:28.139Z,2.30
2022-10-09T13:44:55.707Z,2.53
2022-10-09T13:47:24.642Z,2.30
2022-10-09T13:49:52.742Z,2.50
2022-10-09T13:52:20.304Z,2.38
2022-10-09T13:54:47.831Z,2.85
2022-10-09T13:57:16.693Z,2.78
2022-10-09T13:59:44.357Z,2.67
2022-10-09T14:02:12.627Z,3.20
2022-10-09T14:04:40.306Z,2.72
2022-10-09T14:07:07.883Z,2.75
2022-10-09T14:09:35.404Z,2.90
2022-10-09T14:12:02.979Z,2.75
2022-10-09T14:14:31.857Z,2.90
2022-10-09T14:16:59.343Z,2.88
2022-10-09T14:19:28.019Z,3.20
2022-10-09T14:21:55.834Z,3.33
2022-10-09T14:24:23.606Z,2.70
2022-10-09T14:26:51.855Z,2.40
2022-10-09T14:29:19.524Z,2.53
2022-10-09T14:31:50.854Z,2.42
2022-10-09T14:34:18.691Z,2.45
2022-10-09T14:36:46.427Z,2.67
2022-10-09T14:39:13.982Z,2.50
2022-10-09T14:41:41.749Z,2.38
2022-10-09T14:44:10.934Z,2.78
2022-10-09T14:46:39.250Z,2.55
2022-10-09T14:49:09.055Z,2.45
2022-10-09T14:51:38.134Z,2.55
2022-10-09T14:54:07.328Z,2.40
2022-10-09T14:56:35.558Z,2.60
2022-10-09T14:59:03.420Z,2.83
2022-10-09T15:01:31.153Z,2.70
2022-10-09T15:04:00.497Z,2.30
2022-10-09T15:06:29.906Z,2.47
2022-10-09T15:09:04.632Z,2.70
2022-10-09T15:11:34.379Z,2.88
2022-10-09T15:14:01.908Z,2.67
2022-10-09T15:16:29.420Z,3.13
2022-10-09T15:18:57.387Z,2.85
2022-10-09T15:21:27.065Z,2.55
2022-10-09T15:23:57.089Z,2.80
2022-10-09T15:26:26.537Z,2.97
2022-10-09T15:28:54.107Z,2.63
2022-10-09T15:31:25.059Z,2.72
2022-10-09T15:33:53.839Z,2.90
2022-10-09T15:36:22.276Z,2.63
2022-10-09T15:38:50.099Z,3.38
2022-10-09T15:41:23.393Z,2.92
2022-10-09T15:43:51.419Z,3.28
2022-10-09T15:46:19.157Z,3.08
2022-10-09T15:48:46.898Z,3.70
2022-10-09T15:51:14.611Z,3.70
2022-10-09T15:53:43.418Z,3.83
2022-10-09T15:56:13.628Z,4.72
2022-10-09T15:58:42.710Z,5.07
2022-10-09T16:01:12.150Z,5.68
2022-10-09T16:03:40.724Z,4.78
2022-10-09T16:06:10.891Z,5.95
2022-10-09T16:08:40.007Z,6.35
2022-10-09T16:13:45.999Z,5.53
2022-10-09T16:16:16.514Z,5.88
2022-10-09T16:18:44.324Z,7.63
2022-10-09T16:21:13.911Z,8.80
2022-10-09T16:23:41.517Z,8.32
2022-10-09T16:26:09.401Z,6.95
2022-10-09T16:28:37.710Z,7.00
2022-10-09T16:31:07.179Z,6.45
2022-10-09T16:33:34.704Z,7.05
2022-10-09T16:36:09.367Z,6.20
2022-10-09T16:38:37.039Z,6.88
2022-10-09T16:41:08.860Z,6.22
2022-10-09T16:43:37.396Z,7.10
2022-10-09T16:46:12.512Z,6.32
2022-10-09T16:48:40.044Z,5.00
2022-10-09T16:51:12.243Z,4.85
2022-10-09T16:53:40.189Z,4.32
2022-10-09T16:56:10.125Z,4.07
2022-10-09T16:58:37.992Z,4.32
2022-10-09T17:01:09.826Z,5.50
2022-10-09T17:03:41.231Z,4.65
2022-10-09T17:06:10.421Z,6.03
2022-10-09T17:08:38.255Z,5.70
2022-10-09T17:11:08.140Z,5.75
2022-10-09T17:13:35.741Z,5.30
2022-10-09T17:16:06.038Z,4.70
2022-10-09T17:18:33.704Z,4.82
2022-10-09T17:21:03.827Z,5.47
2022-10-09T17:23:31.631Z,5.65
2022-10-09T17:25:59.268Z,5.82
2022-10-09T17:28:26.896Z,6.07
2022-10-09T17:30:54.432Z,6.47
2022-10-09T17:33:21.939Z,6.05
2022-10-09T17:35:49.471Z,5.38
2022-10-09T17:38:18.327Z,5.80
2022-10-09T17:40:45.872Z,6.18
2022-10-09T17:43:13.357Z,5.93
2022-10-09T17:45:42.689Z,6.40
2022-10-09T17:48:10.927Z,5.18
2022-10-09T17:50:38.495Z,6.82
2022-10-09T17:53:06.276Z,5.63
2022-10-09T17:55:38.383Z,5.03
2022-10-09T17:58:05.903Z,5.70
2022-10-09T18:00:33.453Z,5.38
2022-10-09T18:03:00.965Z,6.38
2022-10-09T18:05:28.487Z,5.05
2022-10-09T18:07:56.029Z,5.68
2022-10-09T18:10:23.841Z,6.45
2022-10-09T18:12:52.711Z,5.60
2022-10-09T18:15:20.264Z,4.68
2022-10-09T18:17:48.048Z,6.13
2022-10-09T18:20:15.859Z,5.78
2022-10-09T18:22:43.488Z,5.50
2022-10-09T18:25:11.050Z,6.40
2022-10-09T18:27:38.560Z,6.05
2022-10-09T18:30:08.706Z,5.82
2022-10-09T18:32:36.203Z,5.57
2022-10-09T18:35:03.923Z,5.00
2022-10-09T18:37:31.433Z,5.72
2022-10-09T18:39:58.957Z,6.28
2022-10-09T18:42:26.499Z,6.00
2022-10-09T18:44:54.065Z,6.43
2022-10-09T18:47:28.283Z,6.13
2022-10-09T18:49:57.852Z,6.85
2022-10-09T18:52:26.134Z,5.32
2022-10-09T18:54:55.629Z,5.97
2022-10-09T18:57:25.970Z,7.03
2022-10-09T18:59:55.372Z,5.75
2022-10-09T19:02:26.773Z,9.57
2022-10-09T19:04:54.551Z,7.90
2022-10-09T19:07:22.079Z,6.00
2022-10-09T19:09:53.528Z,7.05
2022-10-09T19:12:22.562Z,9.25
2022-10-09T19:14:50.106Z,10.10
2022-10-09T19:17:17.641Z,9.00
2022-10-09T19:19:46.661Z,8.05
2022-10-09T19:22:16.601Z,9.40
2022-10-09T19:24:45.774Z,10.02
2022-10-09T19:27:13.613Z,11.15
2022-10-09T19:29:41.154Z,11.88
2022-10-09T19:32:08.704Z,11.00
2022-10-09T19:34:36.252Z,10.73
2022-10-09T19:39:37.915Z,11.53
2022-10-09T19:42:05.512Z,11.48
2022-10-09T19:44:33.023Z,10.07
2022-10-09T19:47:00.603Z,11.82
2022-10-09T19:49:31.503Z,9.82
2022-10-09T19:51:59.073Z,8.20
2022-10-09T19:54:28.056Z,8.10
2022-10-09T19:56:55.564Z,7.77
2022-10-09T19:59:23.078Z,7.97
2022-10-09T20:01:55.160Z,8.40
2022-10-09T20:04:24.811Z,7.77
2022-10-09T20:06:52.409Z,6.83
2022-10-09T20:09:20.717Z,8.33
2022-10-09T20:11:49.637Z,9.73
2022-10-09T20:14:17.195Z,8.27
2022-10-09T20:16:44.888Z,7.60
2022-10-09T20:19:12.751Z,7.67
2022-10-09T20:21:40.419Z,8.57
2022-10-09T20:24:08.310Z,9.60
2022-10-09T20:26:38.674Z,10.30
2022-10-09T20:29:11.330Z,9.30
2022-10-09T20:31:39.611Z,10.47
2022-10-09T20:34:07.255Z,10.27
2022-10-09T20:36:36.956Z,11.60
2022-10-09T20:39:07.835Z,11.60
2022-10-09T20:41:35.943Z,9.50
2022-10-09T20:44:04.764Z,10.30
2022-10-09T20:46:36.145Z,9.43
2022-10-09T20:49:05.303Z,9.17
2022-10-09T20:51:35.115Z,9.10
2022-10-09T20:54:03.220Z,10.37
2022-10-09T20:56:32.517Z,9.93
2022-10-09T20:59:01.305Z,8.90
2022-10-09T21:01:29.559Z,9.90
2022-10-09T21:03:59.439Z,10.67
2022-10-09T21:06:27.788Z,11.17
2022-10-09T21:08:55.907Z,11.53
2022-10-09T21:11:24.146Z,12.90
2022-10-09T21:13:52.209Z,11.33
2022-10-09T21:16:22.428Z,9.70
2022-10-09T21:18:54.547Z,9.10
2022-10-09T21:21:23.431Z,8.90
2022-10-09T21:23:51.986Z,10.43
2022-10-09T21:26:21.284Z,11.00
2022-10-09T21:28:48.845Z,8.50
2022-10-09T21:31:18.772Z,7.37
2022-10-09T21:33:46.728Z,8.03
2022-10-09T21:36:22.607Z,8.63
2022-10-09T21:38:51.472Z,8.60
2022-10-09T21:41:19.020Z,8.53
2022-10-09T21:43:46.599Z,8.37
2022-10-09T21:46:14.136Z,8.90
2022-10-09T21:48:41.684Z,7.60
2022-10-09T21:51:09.283Z,8.10
2022-10-09T21:53:36.800Z,8.70
2022-10-09T21:56:06.859Z,9.13
2022-10-09T21:58:34.418Z,8.20
2022-10-09T22:01:03.595Z,8.52
2022-10-09T22:03:34.098Z,7.72
2022-10-09T22:06:05.699Z,8.20
2022-10-09T22:08:33.305Z,6.80
2022-10-09T22:11:00.883Z,7.50
2022-10-09T22:13:29.753Z,7.23
2022-10-09T22:15:57.316Z,6.70
2022-10-09T22:18:24.847Z,7.80
2022-10-09T22:20:52.542Z,8.37
2022-10-09T22:23:21.433Z,7.23
2022-10-09T22:25:57.041Z,7.27
2022-10-09T22:28:25.014Z,7.30
2022-10-09T22:31:06.213Z,6.23
2022-10-09T22:33:34.133Z,6.77
2022-10-09T22:36:06.947Z,7.40
2022-10-09T22:38:35.208Z,7.33
2022-10-09T22:41:04.753Z,9.30
2022-10-09T22:43:32.279Z,10.00
2022-10-09T22:45:59.892Z,9.77
2022-10-09T22:48:28.745Z,9.53
2022-10-09T22:50:56.269Z,8.13
2022-10-09T22:53:23.930Z,9.03
2022-10-09T22:55:51.492Z,7.80
2022-10-09T22:58:18.985Z,9.73
2022-10-09T23:00:46.532Z,7.10
2022-10-09T23:03:14.119Z,8.30
2022-10-09T23:05:42.969Z,9.00
2022-10-09T23:08:10.511Z,6.68
2022-10-09T23:10:38.468Z,6.20
2022-10-09T23:13:06.241Z,6.97
2022-10-09T23:15:35.580Z,7.53
2022-10-09T23:18:03.645Z,9.17
2022-10-09T23:20:31.556Z,10.00
2022-10-09T23:23:00.440Z,9.20
2022-10-09T23:25:27.960Z,6.70
2022-10-09T23:27:55.473Z,8.30
2022-10-09T23:30:22.980Z,6.97
2022-10-09T23:32:52.989Z,6.63
2022-10-09T23:35:20.587Z,7.55
2022-10-09T23:37:48.113Z,7.85
2022-10-09T23:40:17.094Z,8.10
2022-10-09T23:42:44.596Z,7.97
2022-10-09T23:45:12.451Z,8.83
2022-10-09T23:47:41.270Z,9.87
2022-10-09T23:50:09.090Z,10.70
2022-10-09T23:52:36.612Z,7.77
2022-10-09T23:55:04.270Z,6.63
2022-10-09T23:57:34.740Z,7.93
